createdAt,value
2023-04-01T16:27:32.391Z,20.9
2023-04-01T16:28:38.873Z,20.3
2023-04-01T16:29:44.998Z,20.3
2023-04-01T16:30:51.497Z,20.3
2023-04-01T16:31:57.680Z,20.3
2023-04-01T16:33:03.964Z,20.3
2023-04-01T16:34:10.089Z,20.3
2023-04-01T16:35:16.414Z,20.3
2023-04-01T16:36:22.639Z,20.3
2023-04-01T16:37:28.889Z,20.3
2023-04-01T16:38:34.946Z,20.4
2023-04-01T16:39:41.345Z,20.4
2023-04-01T16:40:47.565Z,20.3
2023-04-01T16:41:53.808Z,20.3
2023-04-01T16:43:00.095Z,20.3
2023-04-01T16:44:06.429Z,20.3
2023-04-01T16:45:12.634Z,20.3
2023-04-01T16:46:18.903Z,20.3
2023-04-01T16:47:24.966Z,20.3
2023-04-01T16:48:31.339Z,20.3
2023-04-01T16:49:37.702Z,20.4
2023-04-01T16:50:43.846Z,20.4
2023-04-01T16:51:50.148Z,20.4
2023-04-01T16:52:56.424Z,20.4
2023-04-01T16:54:02.675Z,20.4
2023-04-01T16:55:08.881Z,20.4
2023-04-01T16:56:15.295Z,20.4
2023-04-01T16:57:21.449Z,20.4
2023-04-01T16:58:27.822Z,20.4
2023-04-01T16:59:33.965Z,20.4
2023-04-01T17:00:40.313Z,20.4
2023-04-01T17:01:46.726Z,20.4
2023-04-01T17:02:52.979Z,20.4
2023-04-01T17:03:59.349Z,20.4
2023-04-01T17:05:05.497Z,20.5
2023-04-01T17:06:12.055Z,20.5
2023-04-01T17:07:18.282Z,20.5
2023-04-01T17:08:24.567Z,20.5
2023-04-01T17:09:30.955Z,20.5
2023-04-01T17:10:37.188Z,20.5
2023-04-01T17:11:43.525Z,20.5
2023-04-01T17:12:50.105Z,20.5
2023-04-01T17:13:56.525Z,20.5
2023-04-01T17:15:02.967Z,20.5
2023-04-01T17:16:09.333Z,20.5
2023-04-01T17:17:15.744Z,20.6
2023-04-01T17:18:22.182Z,20.6
2023-04-01T17:19:28.568Z,20.6
2023-04-01T17:20:34.861Z,20.6
2023-04-01T17:21:41.214Z,20.6
2023-04-01T17:22:47.832Z,20.6
2023-04-01T17:23:54.248Z,20.6
2023-04-01T17:25:00.826Z,20.6
2023-04-01T17:26:39.106Z,20.6
2023-04-01T17:27:45.693Z,20.6
2023-04-01T17:28:52.222Z,20.6
2023-04-01T17:29:58.722Z,20.6
2023-04-01T17:31:05.361Z,20.6
2023-04-01T17:32:11.947Z,20.6
2023-04-01T17:33:18.497Z,20.6
2023-04-01T17:34:25.058Z,20.6
2023-04-01T17:35:31.629Z,20.7
2023-04-01T17:36:38.227Z,20.7
2023-04-01T17:37:44.760Z,20.7
2023-04-01T17:38:51.375Z,20.7
2023-04-01T17:41:52.930Z,20.7
2023-04-01T17:42:59.978Z,20.7
2023-04-01T17:44:06.678Z,20.7
2023-04-01T17:45:13.522Z,20.7
2023-04-01T17:46:20.460Z,20.7
2023-04-01T17:47:27.395Z,20.7
2023-04-01T17:48:34.043Z,20.8
2023-04-01T17:49:40.927Z,20.7
2023-04-01T17:50:47.983Z,20.8
2023-04-01T17:51:54.870Z,20.8
2023-04-01T17:53:01.778Z,20.8
2023-04-01T17:54:08.527Z,20.8
2023-04-01T17:55:15.481Z,20.8
2023-04-01T17:57:54.603Z,20.8
2023-04-01T18:00:06.213Z,20.8
2023-04-01T18:02:18.104Z,20.8
2023-04-01T18:04:30.132Z,20.8
2023-04-01T18:06:15.462Z,20.9
2023-04-01T18:07:22.998Z,20.9
2023-04-01T18:09:34.946Z,20.9
2023-04-01T18:11:46.916Z,20.9
2023-04-01T18:13:58.769Z,20.9
2023-04-01T18:16:10.623Z,21
2023-04-01T18:18:22.525Z,20.9
2023-04-01T18:20:34.282Z,21
2023-04-01T18:22:46.251Z,21
2023-04-01T18:27:26.358Z,21
2023-04-01T18:28:33.947Z,21
2023-04-01T18:29:41.474Z,21
2023-04-01T18:31:53.168Z,21
2023-04-01T18:34:05.207Z,21
